sensor_id;sensor_type;location;lat;lon;timestamp;pressure;altitude;pressure_sealevel;temperature;humidity
68994;BME280;56054;50.968;5.816;2023-05-14T00:00:04;101049.94;;;14.24;100.00
68994;BME280;56054;50.968;5.816;2023-05-14T00:03:06;101035.94;;;14.22;100.00
68994;BME280;56054;50.968;5.816;2023-05-14T00:06:07;101044.31;;;14.16;100.00
68994;BME280;56054;50.968;5.816;2023-05-14T00:09:08;101035.91;;;14.05;100.00
68994;BME280;56054;50.968;5.816;2023-05-14T00:12:10;101033.72;;;13.65;100.00
68994;BME280;56054;50.968;5.816;2023-05-14T00:15:10;101029.22;;;13.78;100.00
68994;BME280;56054;50.968;5.816;2023-05-14T00:18:11;101027.72;;;13.66;100.00
68994;BME280;56054;50.968;5.816;2023-05-14T00:21:11;101031.09;;;13.80;100.00
68994;BME280;56054;50.968;5.816;2023-05-14T00:24:11;101027.13;;;13.72;100.00
68994;BME280;56054;50.968;5.816;2023-05-14T00:27:12;101033.19;;;13.87;100.00
68994;BME280;56054;50.968;5.816;2023-05-14T00:30:13;101030.00;;;13.77;100.00
68994;BME280;56054;50.968;5.816;2023-05-14T00:33:20;101032.63;;;13.77;100.00
68994;BME280;56054;50.968;5.816;2023-05-14T00:36:20;101025.88;;;13.80;100.00
68994;BME280;56054;50.968;5.816;2023-05-14T00:39:21;101028.66;;;13.52;100.00
68994;BME280;56054;50.968;5.816;2023-05-14T00:42:21;101026.56;;;13.61;100.00
68994;BME280;56054;50.968;5.816;2023-05-14T00:45:21;101021.25;;;13.60;100.00
68994;BME280;56054;50.968;5.816;2023-05-14T00:48:22;101019.53;;;13.60;100.00
68994;BME280;56054;50.968;5.816;2023-05-14T00:51:23;101009.44;;;13.66;100.00
68994;BME280;56054;50.968;5.816;2023-05-14T00:54:24;101010.47;;;13.54;100.00
68994;BME280;56054;50.968;5.816;2023-05-14T00:57:26;101018.03;;;13.49;100.00
68994;BME280;56054;50.968;5.816;2023-05-14T01:00:26;101010.72;;;13.58;100.00
68994;BME280;56054;50.968;5.816;2023-05-14T01:03:29;101019.50;;;13.44;100.00
68994;BME280;56054;50.968;5.816;2023-05-14T01:09:54;101016.47;;;13.06;100.00
68994;BME280;56054;50.968;5.816;2023-05-14T01:16:29;101019.25;;;13.24;100.00
68994;BME280;56054;50.968;5.816;2023-05-14T01:19:46;101025.66;;;13.30;100.00
68994;BME280;56054;50.968;5.816;2023-05-14T01:22:47;101006.19;;;13.24;100.00
68994;BME280;56054;50.968;5.816;2023-05-14T01:25:48;101008.19;;;13.14;100.00
68994;BME280;56054;50.968;5.816;2023-05-14T01:28:50;101013.06;;;12.93;100.00
68994;BME280;56054;50.968;5.816;2023-05-14T01:31:53;101015.31;;;12.87;100.00
68994;BME280;56054;50.968;5.816;2023-05-14T01:34:55;101016.47;;;12.92;100.00
68994;BME280;56054;50.968;5.816;2023-05-14T01:38:00;101006.16;;;12.93;100.00
68994;BME280;56054;50.968;5.816;2023-05-14T01:41:01;101011.97;;;13.04;100.00
68994;BME280;56054;50.968;5.816;2023-05-14T01:44:03;101010.97;;;13.02;100.00
68994;BME280;56054;50.968;5.816;2023-05-14T01:47:04;101008.63;;;13.06;100.00
68994;BME280;56054;50.968;5.816;2023-05-14T01:50:04;101009.91;;;12.98;100.00
68994;BME280;56054;50.968;5.816;2023-05-14T01:53:05;101011.97;;;13.04;100.00
68994;BME280;56054;50.968;5.816;2023-05-14T01:56:06;101004.88;;;12.87;100.00
68994;BME280;56054;50.968;5.816;2023-05-14T01:59:06;100987.78;;;12.92;100.00
68994;BME280;56054;50.968;5.816;2023-05-14T02:02:07;100987.44;;;12.85;100.00
68994;BME280;56054;50.968;5.816;2023-05-14T02:05:09;100987.53;;;12.72;100.00
68994;BME280;56054;50.968;5.816;2023-05-14T02:08:09;100984.31;;;12.76;100.00
68994;BME280;56054;50.968;5.816;2023-05-14T02:11:10;100984.19;;;12.75;100.00
68994;BME280;56054;50.968;5.816;2023-05-14T02:14:10;100985.91;;;12.59;100.00
68994;BME280;56054;50.968;5.816;2023-05-14T02:17:11;100983.31;;;12.74;100.00
68994;BME280;56054;50.968;5.816;2023-05-14T02:20:11;100988.16;;;12.53;100.00
68994;BME280;56054;50.968;5.816;2023-05-14T02:23:12;100987.63;;;12.74;100.00
68994;BME280;56054;50.968;5.816;2023-05-14T02:26:12;100991.50;;;12.80;100.00
68994;BME280;56054;50.968;5.816;2023-05-14T02:29:13;100991.13;;;12.74;100.00
68994;BME280;56054;50.968;5.816;2023-05-14T02:32:13;100983.94;;;12.70;100.00
68994;BME280;56054;50.968;5.816;2023-05-14T02:35:13;100996.34;;;12.59;100.00
68994;BME280;56054;50.968;5.816;2023-05-14T02:38:14;100994.81;;;12.63;100.00
68994;BME280;56054;50.968;5.816;2023-05-14T02:41:15;100973.13;;;12.19;100.00
68994;BME280;56054;50.968;5.816;2023-05-14T02:44:15;100983.03;;;12.40;100.00
68994;BME280;56054;50.968;5.816;2023-05-14T02:47:15;100999.22;;;12.34;100.00
68994;BME280;56054;50.968;5.816;2023-05-14T02:50:16;101003.28;;;12.16;100.00
68994;BME280;56054;50.968;5.816;2023-05-14T02:53:17;101000.63;;;12.14;100.00
68994;BME280;56054;50.968;5.816;2023-05-14T02:56:17;100999.16;;;12.05;100.00
68994;BME280;56054;50.968;5.816;2023-05-14T02:59:17;100987.31;;;12.10;100.00
68994;BME280;56054;50.968;5.816;2023-05-14T03:02:18;100983.63;;;12.21;100.00
68994;BME280;56054;50.968;5.816;2023-05-14T03:05:19;100984.47;;;12.35;100.00
68994;BME280;56054;50.968;5.816;2023-05-14T03:08:28;100983.00;;;12.25;100.00
68994;BME280;56054;50.968;5.816;2023-05-14T03:18:23;100982.47;;;11.74;100.00
68994;BME280;56054;50.968;5.816;2023-05-14T03:21:24;100980.41;;;11.69;100.00
68994;BME280;56054;50.968;5.816;2023-05-14T03:24:24;100976.75;;;11.80;100.00
68994;BME280;56054;50.968;5.816;2023-05-14T03:27:25;100971.78;;;11.70;100.00
68994;BME280;56054;50.968;5.816;2023-05-14T03:30:25;100980.16;;;11.79;100.00
68994;BME280;56054;50.968;5.816;2023-05-14T03:33:26;100969.53;;;11.89;100.00
68994;BME280;56054;50.968;5.816;2023-05-14T03:36:26;100973.31;;;11.94;100.00
68994;BME280;56054;50.968;5.816;2023-05-14T03:39:26;100979.16;;;11.90;100.00
68994;BME280;56054;50.968;5.816;2023-05-14T03:42:27;100987.06;;;11.92;100.00
68994;BME280;56054;50.968;5.816;2023-05-14T03:45:27;100981.53;;;12.01;100.00
68994;BME280;56054;50.968;5.816;2023-05-14T03:48:28;100971.34;;;11.90;100.00
68994;BME280;56054;50.968;5.816;2023-05-14T03:51:28;100979.72;;;11.99;100.00
68994;BME280;56054;50.968;5.816;2023-05-14T03:54:30;100987.31;;;11.68;100.00
68994;BME280;56054;50.968;5.816;2023-05-14T03:57:30;100969.03;;;11.82;100.00
68994;BME280;56054;50.968;5.816;2023-05-14T04:00:31;100974.00;;;11.64;100.00
68994;BME280;56054;50.968;5.816;2023-05-14T04:03:31;100974.13;;;11.80;100.00
68994;BME280;56054;50.968;5.816;2023-05-14T04:06:35;100967.47;;;11.70;100.00
68994;BME280;56054;50.968;5.816;2023-05-14T04:09:35;100975.13;;;11.95;100.00
68994;BME280;56054;50.968;5.816;2023-05-14T04:12:36;100966.88;;;11.88;100.00
68994;BME280;56054;50.968;5.816;2023-05-14T04:15:37;100959.06;;;11.88;100.00
68994;BME280;56054;50.968;5.816;2023-05-14T04:18:37;100954.50;;;11.57;100.00
68994;BME280;56054;50.968;5.816;2023-05-14T04:21:38;100953.59;;;11.85;100.00
68994;BME280;56054;50.968;5.816;2023-05-14T04:24:38;100952.06;;;12.02;100.00
68994;BME280;56054;50.968;5.816;2023-05-14T04:27:46;100937.59;;;12.07;100.00
68994;BME280;56054;50.968;5.816;2023-05-14T04:30:47;100939.31;;;12.06;100.00
68994;BME280;56054;50.968;5.816;2023-05-14T04:33:47;100950.72;;;11.93;100.00
68994;BME280;56054;50.968;5.816;2023-05-14T04:36:48;100942.59;;;12.17;100.00
68994;BME280;56054;50.968;5.816;2023-05-14T04:39:50;100944.69;;;12.09;100.00
68994;BME280;56054;50.968;5.816;2023-05-14T04:42:51;100947.81;;;12.17;100.00
68994;BME280;56054;50.968;5.816;2023-05-14T04:45:51;100947.34;;;11.68;100.00
68994;BME280;56054;50.968;5.816;2023-05-14T04:48:51;100954.84;;;11.76;100.00
68994;BME280;56054;50.968;5.816;2023-05-14T04:51:52;100940.53;;;11.70;100.00
68994;BME280;56054;50.968;5.816;2023-05-14T04:54:52;100961.91;;;11.92;100.00
68994;BME280;56054;50.968;5.816;2023-05-14T04:57:53;100948.84;;;12.06;100.00
68994;BME280;56054;50.968;5.816;2023-05-14T05:00:53;100953.53;;;12.26;100.00
68994;BME280;56054;50.968;5.816;2023-05-14T05:03:54;100961.88;;;12.06;100.00
68994;BME280;56054;50.968;5.816;2023-05-14T05:06:54;100968.38;;;12.27;100.00
68994;BME280;56054;50.968;5.816;2023-05-14T05:09:55;100975.31;;;12.41;100.00
68994;BME280;56054;50.968;5.816;2023-05-14T05:12:55;100975.03;;;12.52;100.00
68994;BME280;56054;50.968;5.816;2023-05-14T05:15:55;100969.00;;;12.23;100.00
68994;BME280;56054;50.968;5.816;2023-05-14T05:18:56;100974.59;;;12.44;100.00
68994;BME280;56054;50.968;5.816;2023-05-14T05:21:56;100976.75;;;12.66;100.00
68994;BME280;56054;50.968;5.816;2023-05-14T05:24:57;100969.25;;;12.87;100.00
68994;BME280;56054;50.968;5.816;2023-05-14T05:27:57;100976.13;;;12.85;100.00
68994;BME280;56054;50.968;5.816;2023-05-14T05:30:58;100979.91;;;12.90;100.00
68994;BME280;56054;50.968;5.816;2023-05-14T05:33:59;100974.44;;;13.02;100.00
68994;BME280;56054;50.968;5.816;2023-05-14T05:36:59;100974.03;;;12.94;100.00
68994;BME280;56054;50.968;5.816;2023-05-14T05:39:59;100982.53;;;13.06;100.00
68994;BME280;56054;50.968;5.816;2023-05-14T05:43:00;100987.00;;;12.78;100.00
68994;BME280;56054;50.968;5.816;2023-05-14T05:46:00;100982.53;;;13.06;100.00
68994;BME280;56054;50.968;5.816;2023-05-14T05:49:01;100975.28;;;13.01;100.00
68994;BME280;56054;50.968;5.816;2023-05-14T05:52:01;100981.56;;;13.04;100.00
68994;BME280;56054;50.968;5.816;2023-05-14T05:55:02;100985.53;;;12.98;100.00
68994;BME280;56054;50.968;5.816;2023-05-14T05:58:02;100989.38;;;13.19;100.00
68994;BME280;56054;50.968;5.816;2023-05-14T06:01:03;100987.72;;;13.21;100.00
68994;BME280;56054;50.968;5.816;2023-05-14T06:04:03;100991.06;;;13.19;100.00
68994;BME280;56054;50.968;5.816;2023-05-14T06:07:04;100981.88;;;13.25;100.00
68994;BME280;56054;50.968;5.816;2023-05-14T06:10:05;100989.03;;;13.13;100.00
68994;BME280;56054;50.968;5.816;2023-05-14T06:13:05;100988.38;;;13.17;100.00
68994;BME280;56054;50.968;5.816;2023-05-14T06:16:06;100984.84;;;13.46;100.00
68994;BME280;56054;50.968;5.816;2023-05-14T06:19:06;100996.78;;;13.74;100.00
68994;BME280;56054;50.968;5.816;2023-05-14T06:22:07;100994.91;;;13.72;100.00
68994;BME280;56054;50.968;5.816;2023-05-14T06:25:08;100998.84;;;13.96;100.00
68994;BME280;56054;50.968;5.816;2023-05-14T06:28:08;101004.41;;;13.86;100.00
68994;BME280;56054;50.968;5.816;2023-05-14T06:31:09;100995.34;;;13.96;100.00
68994;BME280;56054;50.968;5.816;2023-05-14T06:34:09;101000.56;;;13.96;100.00
68994;BME280;56054;50.968;5.816;2023-05-14T06:37:10;101006.53;;;14.09;100.00
68994;BME280;56054;50.968;5.816;2023-05-14T06:40:11;101001.13;;;14.23;100.00
68994;BME280;56054;50.968;5.816;2023-05-14T06:43:12;101001.91;;;14.38;100.00
68994;BME280;56054;50.968;5.816;2023-05-14T06:46:12;101000.38;;;14.25;100.00
68994;BME280;56054;50.968;5.816;2023-05-14T06:49:13;100994.13;;;14.22;100.00
68994;BME280;56054;50.968;5.816;2023-05-14T06:52:13;100987.06;;;14.53;100.00
68994;BME280;56054;50.968;5.816;2023-05-14T06:55:13;100984.97;;;14.48;100.00
68994;BME280;56054;50.968;5.816;2023-05-14T06:58:14;100988.84;;;14.54;100.00
68994;BME280;56054;50.968;5.816;2023-05-14T07:01:15;100990.56;;;14.70;100.00
68994;BME280;56054;50.968;5.816;2023-05-14T07:04:16;100997.19;;;14.82;100.00
68994;BME280;56054;50.968;5.816;2023-05-14T07:07:16;100983.53;;;15.05;100.00
68994;BME280;56054;50.968;5.816;2023-05-14T07:10:24;100988.63;;;15.20;100.00
68994;BME280;56054;50.968;5.816;2023-05-14T07:13:25;100990.13;;;15.15;100.00
68994;BME280;56054;50.968;5.816;2023-05-14T07:16:25;100990.81;;;15.48;100.00
68994;BME280;56054;50.968;5.816;2023-05-14T07:19:26;101000.63;;;15.52;100.00
68994;BME280;56054;50.968;5.816;2023-05-14T07:22:26;100993.34;;;15.27;100.00
68994;BME280;56054;50.968;5.816;2023-05-14T07:25:26;100999.06;;;15.56;100.00
68994;BME280;56054;50.968;5.816;2023-05-14T07:28:27;100990.56;;;15.79;100.00
68994;BME280;56054;50.968;5.816;2023-05-14T07:31:27;100991.84;;;15.88;100.00
68994;BME280;56054;50.968;5.816;2023-05-14T07:34:36;100995.06;;;16.01;100.00
68994;BME280;56054;50.968;5.816;2023-05-14T07:37:37;100985.34;;;15.99;100.00
68994;BME280;56054;50.968;5.816;2023-05-14T07:40:37;100993.16;;;16.17;100.00
68994;BME280;56054;50.968;5.816;2023-05-14T07:43:45;100992.22;;;16.16;100.00
68994;BME280;56054;50.968;5.816;2023-05-14T07:46:46;100988.22;;;16.44;100.00
68994;BME280;56054;50.968;5.816;2023-05-14T07:49:46;100981.03;;;16.40;100.00
68994;BME280;56054;50.968;5.816;2023-05-14T07:52:47;100978.41;;;16.40;100.00
68994;BME280;56054;50.968;5.816;2023-05-14T07:55:48;100982.78;;;16.39;100.00
68994;BME280;56054;50.968;5.816;2023-05-14T07:58:49;100983.53;;;16.58;100.00
68994;BME280;56054;50.968;5.816;2023-05-14T08:01:49;100986.53;;;16.65;100.00
68994;BME280;56054;50.968;5.816;2023-05-14T08:04:50;100990.66;;;16.60;100.00
68994;BME280;56054;50.968;5.816;2023-05-14T08:07:50;100990.41;;;16.54;100.00
68994;BME280;56054;50.968;5.816;2023-05-14T08:10:51;100986.47;;;16.85;100.00
68994;BME280;56054;50.968;5.816;2023-05-14T08:17:22;100981.91;;;17.02;100.00
68994;BME280;56054;50.968;5.816;2023-05-14T08:24:12;100991.66;;;17.04;100.00
68994;BME280;56054;50.968;5.816;2023-05-14T08:27:15;100990.97;;;17.31;100.00
68994;BME280;56054;50.968;5.816;2023-05-14T08:30:15;100992.91;;;17.35;100.00
68994;BME280;56054;50.968;5.816;2023-05-14T08:33:17;100993.66;;;17.32;100.00
68994;BME280;56054;50.968;5.816;2023-05-14T08:36:17;100983.91;;;17.51;100.00
68994;BME280;56054;50.968;5.816;2023-05-14T08:39:18;100987.81;;;17.40;100.00
68994;BME280;56054;50.968;5.816;2023-05-14T08:42:20;100985.16;;;17.61;100.00
68994;BME280;56054;50.968;5.816;2023-05-14T08:45:29;100978.47;;;17.46;100.00
68994;BME280;56054;50.968;5.816;2023-05-14T08:56:16;100978.00;;;18.03;100.00
68994;BME280;56054;50.968;5.816;2023-05-14T08:59:17;100977.59;;;18.16;100.00
68994;BME280;56054;50.968;5.816;2023-05-14T09:02:21;100978.72;;;18.23;100.00
68994;BME280;56054;50.968;5.816;2023-05-14T09:05:24;100971.00;;;18.28;100.00
68994;BME280;56054;50.968;5.816;2023-05-14T09:08:25;100967.31;;;18.23;100.00
68994;BME280;56054;50.968;5.816;2023-05-14T09:11:26;100975.47;;;18.30;98.03
68994;BME280;56054;50.968;5.816;2023-05-14T09:14:26;100968.94;;;18.70;98.82
68994;BME280;56054;50.968;5.816;2023-05-14T09:17:27;100971.38;;;18.64;99.15
68994;BME280;56054;50.968;5.816;2023-05-14T09:20:27;100964.84;;;18.53;98.92
68994;BME280;56054;50.968;5.816;2023-05-14T09:23:31;100960.81;;;18.37;97.85
68994;BME280;56054;50.968;5.816;2023-05-14T09:26:33;100965.25;;;18.64;97.54
68994;BME280;56054;50.968;5.816;2023-05-14T09:29:36;100960.66;;;18.84;95.34
68994;BME280;56054;50.968;5.816;2023-05-14T09:32:38;100966.47;;;18.75;95.60
68994;BME280;56054;50.968;5.816;2023-05-14T09:35:39;100956.25;;;18.83;93.75
68994;BME280;56054;50.968;5.816;2023-05-14T09:38:42;100957.34;;;18.89;92.50
68994;BME280;56054;50.968;5.816;2023-05-14T09:41:50;100958.19;;;19.15;91.47
68994;BME280;56054;50.968;5.816;2023-05-14T09:44:54;100952.22;;;19.21;88.12
68994;BME280;56054;50.968;5.816;2023-05-14T09:48:01;100949.44;;;19.45;88.56
68994;BME280;56054;50.968;5.816;2023-05-14T09:51:11;100957.13;;;19.66;88.91
68994;BME280;56054;50.968;5.816;2023-05-14T09:54:33;100950.00;;;19.63;88.71
68994;BME280;56054;50.968;5.816;2023-05-14T09:57:35;100952.41;;;19.56;88.70
68994;BME280;56054;50.968;5.816;2023-05-14T10:00:52;100950.97;;;19.37;87.40
68994;BME280;56054;50.968;5.816;2023-05-14T10:08:12;100943.88;;;19.93;86.54
68994;BME280;56054;50.968;5.816;2023-05-14T10:18:40;100940.88;;;19.52;87.97
68994;BME280;56054;50.968;5.816;2023-05-14T10:22:38;100953.00;;;19.18;86.96
68994;BME280;56054;50.968;5.816;2023-05-14T10:29:20;100943.06;;;19.37;83.17
68994;BME280;56054;50.968;5.816;2023-05-14T10:33:46;100937.38;;;20.14;81.26
68994;BME280;56054;50.968;5.816;2023-05-14T10:36:49;100934.59;;;20.07;80.71
68994;BME280;56054;50.968;5.816;2023-05-14T10:40:08;100934.31;;;20.30;77.90
68994;BME280;56054;50.968;5.816;2023-05-14T10:43:30;100922.81;;;20.60;78.58
68994;BME280;56054;50.968;5.816;2023-05-14T10:46:46;100924.75;;;20.02;80.18
68994;BME280;56054;50.968;5.816;2023-05-14T10:50:04;100921.09;;;19.97;80.29
68994;BME280;56054;50.968;5.816;2023-05-14T10:53:12;100924.31;;;19.85;77.17
68994;BME280;56054;50.968;5.816;2023-05-14T10:56:13;100912.44;;;20.01;77.91
68994;BME280;56054;50.968;5.816;2023-05-14T11:03:28;100911.34;;;20.26;74.29
68994;BME280;56054;50.968;5.816;2023-05-14T11:15:09;100901.75;;;20.63;72.25
68994;BME280;56054;50.968;5.816;2023-05-14T11:26:32;100896.50;;;20.64;69.82
68994;BME280;56054;50.968;5.816;2023-05-14T11:42:26;100880.84;;;20.72;67.22
68994;BME280;56054;50.968;5.816;2023-05-14T11:49:43;100863.84;;;20.26;70.13
68994;BME280;56054;50.968;5.816;2023-05-14T14:13:07;100732.41;;;22.27;41.74
68994;BME280;56054;50.968;5.816;2023-05-14T14:16:14;100725.06;;;22.70;43.23
68994;BME280;56054;50.968;5.816;2023-05-14T14:19:15;100744.59;;;22.76;42.69
68994;BME280;56054;50.968;5.816;2023-05-14T14:22:19;100722.63;;;22.22;40.24
68994;BME280;56054;50.968;5.816;2023-05-14T14:25:39;100734.81;;;22.71;41.45
68994;BME280;56054;50.968;5.816;2023-05-14T14:28:55;100720.00;;;22.22;40.73
68994;BME280;56054;50.968;5.816;2023-05-14T14:31:56;100729.38;;;22.61;42.23
68994;BME280;56054;50.968;5.816;2023-05-14T14:39:32;100723.94;;;22.52;40.69
68994;BME280;56054;50.968;5.816;2023-05-14T14:46:51;100707.84;;;22.37;41.14
68994;BME280;56054;50.968;5.816;2023-05-14T14:54:10;100701.34;;;22.18;41.73
68994;BME280;56054;50.968;5.816;2023-05-14T15:00:59;100695.44;;;22.33;42.35
68994;BME280;56054;50.968;5.816;2023-05-14T15:08:18;100691.66;;;22.17;41.41
68994;BME280;56054;50.968;5.816;2023-05-14T15:11:36;100692.38;;;22.08;42.05
68994;BME280;56054;50.968;5.816;2023-05-14T15:14:54;100689.78;;;22.10;41.76
68994;BME280;56054;50.968;5.816;2023-05-14T15:18:39;100697.78;;;22.16;43.11
68994;BME280;56054;50.968;5.816;2023-05-14T15:26:07;100693.81;;;21.86;42.33
68994;BME280;56054;50.968;5.816;2023-05-14T15:29:26;100681.63;;;21.96;42.82
68994;BME280;56054;50.968;5.816;2023-05-14T15:33:13;100678.03;;;21.94;41.59
68994;BME280;56054;50.968;5.816;2023-05-14T15:36:14;100681.66;;;21.99;43.38
68994;BME280;56054;50.968;5.816;2023-05-14T15:39:21;100683.72;;;22.18;42.23
68994;BME280;56054;50.968;5.816;2023-05-14T15:42:22;100683.53;;;22.06;42.10
68994;BME280;56054;50.968;5.816;2023-05-14T15:45:26;100676.94;;;21.79;41.75
68994;BME280;56054;50.968;5.816;2023-05-14T15:59:37;100669.06;;;21.84;42.50
68994;BME280;56054;50.968;5.816;2023-05-14T16:02:38;100670.03;;;21.88;43.20
68994;BME280;56054;50.968;5.816;2023-05-14T16:05:39;100681.66;;;21.97;43.33
68994;BME280;56054;50.968;5.816;2023-05-14T16:08:40;100679.13;;;22.05;43.12
68994;BME280;56054;50.968;5.816;2023-05-14T16:11:40;100685.91;;;21.88;42.13
68994;BME280;56054;50.968;5.816;2023-05-14T16:14:47;100672.00;;;22.01;42.08
68994;BME280;56054;50.968;5.816;2023-05-14T16:17:48;100677.31;;;22.04;42.84
68994;BME280;56054;50.968;5.816;2023-05-14T16:20:49;100671.00;;;21.94;43.39
68994;BME280;56054;50.968;5.816;2023-05-14T16:23:49;100662.63;;;21.67;41.98
68994;BME280;56054;50.968;5.816;2023-05-14T16:27:00;100672.41;;;21.72;43.17
68994;BME280;56054;50.968;5.816;2023-05-14T16:30:01;100660.66;;;21.55;43.44
68994;BME280;56054;50.968;5.816;2023-05-14T16:33:05;100668.84;;;21.69;44.10
68994;BME280;56054;50.968;5.816;2023-05-14T16:36:05;100656.88;;;21.41;44.67
68994;BME280;56054;50.968;5.816;2023-05-14T16:39:06;100663.38;;;21.59;43.13
68994;BME280;56054;50.968;5.816;2023-05-14T16:45:19;100664.81;;;21.39;44.62
68994;BME280;56054;50.968;5.816;2023-05-14T16:48:20;100660.84;;;21.19;45.07
68994;BME280;56054;50.968;5.816;2023-05-14T16:51:20;100669.78;;;21.25;44.77
68994;BME280;56054;50.968;5.816;2023-05-14T16:54:22;100671.31;;;21.14;46.68
68994;BME280;56054;50.968;5.816;2023-05-14T16:57:23;100669.84;;;21.28;47.10
68994;BME280;56054;50.968;5.816;2023-05-14T17:00:23;100671.63;;;21.29;45.98
68994;BME280;56054;50.968;5.816;2023-05-14T17:03:24;100662.50;;;21.13;45.17
68994;BME280;56054;50.968;5.816;2023-05-14T17:06:25;100672.53;;;21.30;46.17
68994;BME280;56054;50.968;5.816;2023-05-14T17:09:27;100663.47;;;21.17;45.25
68994;BME280;56054;50.968;5.816;2023-05-14T17:12:28;100670.56;;;21.20;46.90
68994;BME280;56054;50.968;5.816;2023-05-14T17:15:28;100665.81;;;21.02;46.16
68994;BME280;56054;50.968;5.816;2023-05-14T17:18:29;100671.78;;;20.91;46.11
68994;BME280;56054;50.968;5.816;2023-05-14T17:21:29;100669.75;;;20.78;45.02
68994;BME280;56054;50.968;5.816;2023-05-14T17:24:41;100669.22;;;20.96;45.64
68994;BME280;56054;50.968;5.816;2023-05-14T17:27:41;100667.22;;;20.83;46.19
68994;BME280;56054;50.968;5.816;2023-05-14T17:30:49;100666.09;;;20.71;46.14
68994;BME280;56054;50.968;5.816;2023-05-14T17:33:49;100671.22;;;20.65;46.28
68994;BME280;56054;50.968;5.816;2023-05-14T17:36:52;100673.41;;;20.44;47.04
68994;BME280;56054;50.968;5.816;2023-05-14T17:39:52;100667.34;;;20.49;47.89
68994;BME280;56054;50.968;5.816;2023-05-14T17:42:53;100673.72;;;20.58;48.58
68994;BME280;56054;50.968;5.816;2023-05-14T17:45:53;100676.06;;;20.45;49.16
68994;BME280;56054;50.968;5.816;2023-05-14T17:49:04;100672.91;;;20.22;50.49
68994;BME280;56054;50.968;5.816;2023-05-14T17:52:05;100676.50;;;20.26;50.48
68994;BME280;56054;50.968;5.816;2023-05-14T17:55:06;100677.09;;;20.13;49.92
68994;BME280;56054;50.968;5.816;2023-05-14T17:58:06;100672.69;;;20.13;49.58
68994;BME280;56054;50.968;5.816;2023-05-14T18:04:23;100677.56;;;19.95;48.95
68994;BME280;56054;50.968;5.816;2023-05-14T18:13:59;100687.81;;;19.84;50.85
68994;BME280;56054;50.968;5.816;2023-05-14T18:17:00;100681.47;;;19.76;51.47
68994;BME280;56054;50.968;5.816;2023-05-14T18:20:00;100693.38;;;19.61;51.72
68994;BME280;56054;50.968;5.816;2023-05-14T18:23:01;100693.31;;;19.58;52.65
68994;BME280;56054;50.968;5.816;2023-05-14T18:26:02;100689.69;;;19.55;53.17
68994;BME280;56054;50.968;5.816;2023-05-14T18:29:04;100687.72;;;19.46;53.41
68994;BME280;56054;50.968;5.816;2023-05-14T18:32:05;100693.00;;;19.48;54.46
68994;BME280;56054;50.968;5.816;2023-05-14T18:35:06;100691.19;;;19.45;55.21
68994;BME280;56054;50.968;5.816;2023-05-14T18:38:06;100696.47;;;19.45;55.21
68994;BME280;56054;50.968;5.816;2023-05-14T18:41:07;100693.31;;;19.58;55.99
68994;BME280;56054;50.968;5.816;2023-05-14T18:44:07;100702.97;;;19.26;57.13
68994;BME280;56054;50.968;5.816;2023-05-14T18:47:08;100697.50;;;19.18;57.30
68994;BME280;56054;50.968;5.816;2023-05-14T18:50:09;100700.25;;;19.23;58.40
68994;BME280;56054;50.968;5.816;2023-05-14T18:53:14;100699.38;;;19.22;59.30
68994;BME280;56054;50.968;5.816;2023-05-14T18:56:15;100698.38;;;19.19;59.79
68994;BME280;56054;50.968;5.816;2023-05-14T18:59:20;100695.06;;;19.24;59.62
68994;BME280;56054;50.968;5.816;2023-05-14T19:02:24;100695.53;;;19.11;60.00
68994;BME280;56054;50.968;5.816;2023-05-14T19:05:39;100697.03;;;19.01;60.87
68994;BME280;56054;50.968;5.816;2023-05-14T19:08:42;100697.97;;;19.03;60.80
68994;BME280;56054;50.968;5.816;2023-05-14T19:11:46;100706.41;;;18.92;61.84
68994;BME280;56054;50.968;5.816;2023-05-14T19:14:47;100698.06;;;18.76;62.08
68994;BME280;56054;50.968;5.816;2023-05-14T19:18:05;100700.31;;;18.64;62.28
68994;BME280;56054;50.968;5.816;2023-05-14T19:21:06;100704.84;;;18.68;61.91
68994;BME280;56054;50.968;5.816;2023-05-14T19:24:15;100701.28;;;18.68;62.09
68994;BME280;56054;50.968;5.816;2023-05-14T19:27:16;100704.47;;;18.56;62.36
68994;BME280;56054;50.968;5.816;2023-05-14T19:30:19;100711.22;;;18.48;62.17
68994;BME280;56054;50.968;5.816;2023-05-14T19:33:26;100712.81;;;18.43;62.57
68994;BME280;56054;50.968;5.816;2023-05-14T19:36:27;100723.00;;;18.32;62.94
68994;BME280;56054;50.968;5.816;2023-05-14T19:39:28;100709.81;;;18.30;62.60
68994;BME280;56054;50.968;5.816;2023-05-14T19:42:34;100713.31;;;18.31;62.55
68994;BME280;56054;50.968;5.816;2023-05-14T19:45:34;100719.38;;;18.28;63.11
68994;BME280;56054;50.968;5.816;2023-05-14T19:48:44;100723.56;;;18.22;64.25
68994;BME280;56054;50.968;5.816;2023-05-14T19:51:45;100725.50;;;18.27;63.92
68994;BME280;56054;50.968;5.816;2023-05-14T19:54:46;100727.91;;;18.21;64.99
68994;BME280;56054;50.968;5.816;2023-05-14T19:57:49;100725.13;;;18.16;65.27
68994;BME280;56054;50.968;5.816;2023-05-14T20:00:50;100724.75;;;18.04;66.30
68994;BME280;56054;50.968;5.816;2023-05-14T20:03:50;100729.03;;;18.01;67.08
68994;BME280;56054;50.968;5.816;2023-05-14T20:06:51;100733.06;;;17.91;69.32
68994;BME280;56054;50.968;5.816;2023-05-14T20:09:51;100735.63;;;17.88;75.18
68994;BME280;56054;50.968;5.816;2023-05-14T20:12:52;100733.94;;;17.90;76.43
68994;BME280;56054;50.968;5.816;2023-05-14T20:15:54;100735.09;;;17.74;82.50
68994;BME280;56054;50.968;5.816;2023-05-14T20:18:55;100733.31;;;17.73;86.68
68994;BME280;56054;50.968;5.816;2023-05-14T20:21:55;100732.22;;;17.66;88.93